sensor_id;sensor_type;location;lat;lon;timestamp;pressure;altitude;pressure_sealevel;temperature;humidity
53619;BME280;39505;53.040;18.488;2023-03-04T00:00:00;100975.16;;;2.92;100.00
53619;BME280;39505;53.040;18.488;2023-03-04T00:00:14;100983.84;;;2.94;100.00
53619;BME280;39505;53.040;18.488;2023-03-04T00:00:48;100982.22;;;2.91;100.00
53619;BME280;39505;53.040;18.488;2023-03-04T00:01:06;100979.56;;;2.91;100.00
53619;BME280;39505;53.040;18.488;2023-03-04T00:01:19;100978.72;;;2.91;100.00
53619;BME280;39505;53.040;18.488;2023-03-04T00:01:32;100980.50;;;2.90;100.00
53619;BME280;39505;53.040;18.488;2023-03-04T00:01:45;100981.44;;;2.89;100.00
53619;BME280;39505;53.040;18.488;2023-03-04T00:01:59;100981.44;;;2.89;100.00
53619;BME280;39505;53.040;18.488;2023-03-04T00:02:11;100981.44;;;2.89;100.00
53619;BME280;39505;53.040;18.488;2023-03-04T00:02:24;100978.88;;;2.88;100.00
53619;BME280;39505;53.040;18.488;2023-03-04T00:02:37;100977.88;;;2.90;100.00
53619;BME280;39505;53.040;18.488;2023-03-04T00:02:50;100981.44;;;2.89;100.00
53619;BME280;39505;53.040;18.488;2023-03-04T00:03:02;100977.94;;;2.89;100.00
53619;BME280;39505;53.040;18.488;2023-03-04T00:03:15;100985.03;;;2.88;100.00
53619;BME280;39505;53.040;18.488;2023-03-04T00:03:28;100982.44;;;2.87;100.00
53619;BME280;39505;53.040;18.488;2023-03-04T00:03:42;100985.09;;;2.87;100.00
53619;BME280;39505;53.040;18.488;2023-03-04T00:03:55;100982.44;;;2.87;100.00
53619;BME280;39505;53.040;18.488;2023-03-04T00:04:07;100982.44;;;2.87;100.00
53619;BME280;39505;53.040;18.488;2023-03-04T00:04:20;100993.88;;;2.87;100.00
53619;BME280;39505;53.040;18.488;2023-03-04T00:04:33;100987.69;;;2.88;100.00
53619;BME280;39505;53.040;18.488;2023-03-04T00:04:46;100980.50;;;2.90;100.00
53619;BME280;39505;53.040;18.488;2023-03-04T00:04:58;100984.97;;;2.90;100.00
53619;BME280;39505;53.040;18.488;2023-03-04T00:05:11;100986.72;;;2.89;100.00
53619;BME280;39505;53.040;18.488;2023-03-04T00:05:24;100982.31;;;2.90;100.00
53619;BME280;39505;53.040;18.488;2023-03-04T00:05:37;100983.22;;;2.89;100.00
53619;BME280;39505;53.040;18.488;2023-03-04T00:05:50;100982.38;;;2.88;100.00
53619;BME280;39505;53.040;18.488;2023-03-04T00:06:03;100984.09;;;2.89;100.00
53619;BME280;39505;53.040;18.488;2023-03-04T00:06:16;100979.56;;;2.91;100.00
53619;BME280;39505;53.040;18.488;2023-03-04T00:06:29;100982.22;;;2.91;100.00
53619;BME280;39505;53.040;18.488;2023-03-04T00:06:41;100978.72;;;2.91;100.00
53619;BME280;39505;53.040;18.488;2023-03-04T00:06:55;100981.44;;;2.89;100.00
53619;BME280;39505;53.040;18.488;2023-03-04T00:07:08;100981.44;;;2.89;100.00
53619;BME280;39505;53.040;18.488;2023-03-04T00:07:20;100977.09;;;2.88;100.00
53619;BME280;39505;53.040;18.488;2023-03-04T00:07:33;100975.16;;;2.92;100.00
53619;BME280;39505;53.040;18.488;2023-03-04T00:07:46;100967.41;;;2.87;100.00
53619;BME280;39505;53.040;18.488;2023-03-04T00:07:58;100965.53;;;2.89;100.00
53619;BME280;39505;53.040;18.488;2023-03-04T00:08:11;100970.84;;;2.89;100.00
53619;BME280;39505;53.040;18.488;2023-03-04T00:08:24;100971.72;;;2.90;100.00
53619;BME280;39505;53.040;18.488;2023-03-04T00:08:36;100969.06;;;2.90;100.00
53619;BME280;39505;53.040;18.488;2023-03-04T00:08:50;100966.41;;;2.90;100.00
53619;BME280;39505;53.040;18.488;2023-03-04T00:09:03;100973.59;;;2.88;100.00
53619;BME280;39505;53.040;18.488;2023-03-04T00:09:17;100973.59;;;2.88;100.00
53619;BME280;39505;53.040;18.488;2023-03-04T00:09:30;100967.41;;;2.87;100.00
53619;BME280;39505;53.040;18.488;2023-03-04T00:09:43;100969.13;;;2.88;100.00
53619;BME280;39505;53.040;18.488;2023-03-04T00:09:56;100968.28;;;2.88;100.00
53619;BME280;39505;53.040;18.488;2023-03-04T00:10:10;100968.34;;;2.86;100.00
53619;BME280;39505;53.040;18.488;2023-03-04T00:10:24;100967.50;;;2.85;100.00
53619;BME280;39505;53.040;18.488;2023-03-04T00:10:36;100964.88;;;2.85;100.00
53619;BME280;39505;53.040;18.488;2023-03-04T00:10:49;100965.72;;;2.86;100.00
53619;BME280;39505;53.040;18.488;2023-03-04T00:11:02;100966.56;;;2.87;100.00
53619;BME280;39505;53.040;18.488;2023-03-04T00:11:15;100964.75;;;2.87;100.00
53619;BME280;39505;53.040;18.488;2023-03-04T00:11:27;100958.56;;;2.88;100.00
53619;BME280;39505;53.040;18.488;2023-03-04T00:11:40;100962.13;;;2.87;100.00
53619;BME280;39505;53.040;18.488;2023-03-04T00:11:54;100958.56;;;2.88;100.00
53619;BME280;39505;53.040;18.488;2023-03-04T00:12:06;100958.56;;;2.88;100.00
53619;BME280;39505;53.040;18.488;2023-03-04T00:12:20;100961.97;;;2.90;100.00
53619;BME280;39505;53.040;18.488;2023-03-04T00:12:32;100957.53;;;2.91;100.00
53619;BME280;39505;53.040;18.488;2023-03-04T00:12:45;100953.09;;;2.91;100.00
53619;BME280;39505;53.040;18.488;2023-03-04T00:12:57;100951.16;;;2.95;100.00
53619;BME280;39505;53.040;18.488;2023-03-04T00:13:11;100949.41;;;2.94;100.00
53619;BME280;39505;53.040;18.488;2023-03-04T00:13:24;100949.41;;;2.94;100.00
53619;BME280;39505;53.040;18.488;2023-03-04T00:13:37;100952.78;;;2.97;100.00
53619;BME280;39505;53.040;18.488;2023-03-04T00:13:50;100950.00;;;3.00;100.00
53619;BME280;39505;53.040;18.488;2023-03-04T00:14:03;100950.84;;;3.01;100.00
53619;BME280;39505;53.040;18.488;2023-03-04T00:14:15;100942.03;;;3.00;100.00
53619;BME280;39505;53.040;18.488;2023-03-04T00:14:28;100942.09;;;2.99;100.00
53619;BME280;39505;53.040;18.488;2023-03-04T00:14:42;100949.22;;;2.98;100.00
53619;BME280;39505;53.040;18.488;2023-03-04T00:14:54;100943.91;;;2.98;100.00
53619;BME280;39505;53.040;18.488;2023-03-04T00:15:08;100941.16;;;3.00;100.00
53619;BME280;39505;53.040;18.488;2023-03-04T00:15:21;100937.59;;;3.01;100.00
53619;BME280;39505;53.040;18.488;2023-03-04T00:15:33;100938.63;;;2.98;100.00
53619;BME280;39505;53.040;18.488;2023-03-04T00:15:46;100939.53;;;2.97;100.00
53619;BME280;39505;53.040;18.488;2023-03-04T00:16:00;100940.47;;;2.96;100.00
53619;BME280;39505;53.040;18.488;2023-03-04T00:16:12;100933.47;;;2.95;100.00
53619;BME280;39505;53.040;18.488;2023-03-04T00:16:25;100926.28;;;2.97;100.00
53619;BME280;39505;53.040;18.488;2023-03-04T00:16:39;100933.31;;;2.98;100.00
53619;BME280;39505;53.040;18.488;2023-03-04T00:16:51;100930.75;;;2.97;100.00
53619;BME280;39505;53.040;18.488;2023-03-04T00:17:04;100926.28;;;2.97;100.00
53619;BME280;39505;53.040;18.488;2023-03-04T00:17:18;100914.84;;;2.97;100.00
53619;BME280;39505;53.040;18.488;2023-03-04T00:17:31;100913.03;;;2.97;100.00
53619;BME280;39505;53.040;18.488;2023-03-04T00:17:44;100926.28;;;2.97;100.00
53619;BME280;39505;53.040;18.488;2023-03-04T00:17:57;100924.59;;;2.96;100.00
53619;BME280;39505;53.040;18.488;2023-03-04T00:18:10;100927.31;;;2.95;100.00
53619;BME280;39505;53.040;18.488;2023-03-04T00:18:22;100919.28;;;2.96;100.00
53619;BME280;39505;53.040;18.488;2023-03-04T00:18:35;100929.00;;;2.96;100.00
53619;BME280;39505;53.040;18.488;2023-03-04T00:18:48;100921.94;;;2.96;100.00
53619;BME280;39505;53.040;18.488;2023-03-04T00:19:01;100920.16;;;2.97;100.00
53619;BME280;39505;53.040;18.488;2023-03-04T00:19:14;100922.78;;;2.97;100.00
53619;BME280;39505;53.040;18.488;2023-03-04T00:19:27;100921.00;;;2.97;100.00
53619;BME280;39505;53.040;18.488;2023-03-04T00:19:39;100924.50;;;2.98;100.00
53619;BME280;39505;53.040;18.488;2023-03-04T00:19:52;100922.72;;;2.98;100.00
53619;BME280;39505;53.040;18.488;2023-03-04T00:20:06;100926.28;;;2.97;100.00
53619;BME280;39505;53.040;18.488;2023-03-04T00:20:20;100916.53;;;2.98;100.00
53619;BME280;39505;53.040;18.488;2023-03-04T00:20:33;100919.13;;;2.99;100.00
53619;BME280;39505;53.040;18.488;2023-03-04T00:20:45;100928.03;;;2.98;100.00
53619;BME280;39505;53.040;18.488;2023-03-04T00:20:58;100922.72;;;2.98;100.00
53619;BME280;39505;53.040;18.488;2023-03-04T00:21:11;100920.84;;;3.00;100.00
53619;BME280;39505;53.040;18.488;2023-03-04T00:21:23;100917.31;;;3.00;100.00
53619;BME280;39505;53.040;18.488;2023-03-04T00:21:36;100915.56;;;3.00;100.00
53619;BME280;39505;53.040;18.488;2023-03-04T00:21:49;100912.97;;;2.99;100.00
53619;BME280;39505;53.040;18.488;2023-03-04T00:22:03;100918.09;;;3.02;100.00
53619;BME280;39505;53.040;18.488;2023-03-04T00:22:15;100915.38;;;3.03;100.00
53619;BME280;39505;53.040;18.488;2023-03-04T00:22:28;100918.94;;;3.02;100.00
53619;BME280;39505;53.040;18.488;2023-03-04T00:22:41;100913.66;;;3.02;100.00
53619;BME280;39505;53.040;18.488;2023-03-04T00:22:53;100910.16;;;3.02;100.00
53619;BME280;39505;53.040;18.488;2023-03-04T00:23:06;100909.38;;;3.00;100.00
53619;BME280;39505;53.040;18.488;2023-03-04T00:23:19;100910.25;;;3.00;100.00
53619;BME280;39505;53.040;18.488;2023-03-04T00:23:33;100904.25;;;2.97;100.00
53619;BME280;39505;53.040;18.488;2023-03-04T00:23:46;100919.13;;;2.99;100.00
53619;BME280;39505;53.040;18.488;2023-03-04T00:23:58;100911.25;;;2.98;100.00
53619;BME280;39505;53.040;18.488;2023-03-04T00:24:11;100912.19;;;2.97;100.00
53619;BME280;39505;53.040;18.488;2023-03-04T00:24:26;100903.41;;;2.96;100.00
53619;BME280;39505;53.040;18.488;2023-03-04T00:24:38;100909.63;;;2.95;100.00
53619;BME280;39505;53.040;18.488;2023-03-04T00:24:51;100904.41;;;2.94;100.00
53619;BME280;39505;53.040;18.488;2023-03-04T00:25:05;100905.28;;;2.94;100.00
53619;BME280;39505;53.040;18.488;2023-03-04T00:25:18;100914.13;;;2.93;100.00
53619;BME280;39505;53.040;18.488;2023-03-04T00:25:31;100904.50;;;2.92;100.00
53619;BME280;39505;53.040;18.488;2023-03-04T00:25:44;100905.28;;;2.94;100.00
53619;BME280;39505;53.040;18.488;2023-03-04T00:25:57;100910.66;;;2.93;100.00
53619;BME280;39505;53.040;18.488;2023-03-04T00:26:10;100910.66;;;2.93;100.00
53619;BME280;39505;53.040;18.488;2023-03-04T00:26:24;100909.47;;;2.98;100.00
53619;BME280;39505;53.040;18.488;2023-03-04T00:26:37;100905.09;;;2.97;100.00
53619;BME280;39505;53.040;18.488;2023-03-04T00:26:50;100906.06;;;2.96;100.00
53619;BME280;39505;53.040;18.488;2023-03-04T00:27:03;100900.75;;;2.96;100.00
53619;BME280;39505;53.040;18.488;2023-03-04T00:27:16;100900.75;;;2.96;100.00
53619;BME280;39505;53.040;18.488;2023-03-04T00:27:28;100906.06;;;2.96;100.00
53619;BME280;39505;53.040;18.488;2023-03-04T00:27:41;100905.09;;;2.97;100.00
53619;BME280;39505;53.040;18.488;2023-03-04T00:27:54;100904.78;;;3.03;100.00
53619;BME280;39505;53.040;18.488;2023-03-04T00:28:06;100898.63;;;3.03;100.00
53619;BME280;39505;53.040;18.488;2023-03-04T00:28:19;100903.00;;;3.04;100.00
53619;BME280;39505;53.040;18.488;2023-03-04T00:28:33;100893.25;;;3.04;100.00
53619;BME280;39505;53.040;18.488;2023-03-04T00:28:45;100898.63;;;3.03;100.00
53619;BME280;39505;53.040;18.488;2023-03-04T00:28:58;100898.63;;;3.03;100.00
53619;BME280;39505;53.040;18.488;2023-03-04T00:29:11;100897.00;;;3.00;100.00
53619;BME280;39505;53.040;18.488;2023-03-04T00:29:23;100896.06;;;3.01;100.00
53619;BME280;39505;53.040;18.488;2023-03-04T00:29:36;100895.22;;;3.01;100.00
53619;BME280;39505;53.040;18.488;2023-03-04T00:29:50;100894.38;;;3.00;100.00
53619;BME280;39505;53.040;18.488;2023-03-04T00:30:03;100892.56;;;3.01;100.00
53619;BME280;39505;53.040;18.488;2023-03-04T00:30:16;100889.06;;;3.00;100.00
53619;BME280;39505;53.040;18.488;2023-03-04T00:30:29;100887.28;;;3.01;100.00
53619;BME280;39505;53.040;18.488;2023-03-04T00:30:42;100889.06;;;3.00;100.00
53619;BME280;39505;53.040;18.488;2023-03-04T00:30:54;100889.06;;;3.00;100.00
53619;BME280;39505;53.040;18.488;2023-03-04T00:31:07;100891.72;;;3.00;100.00
53619;BME280;39505;53.040;18.488;2023-03-04T00:31:21;100884.63;;;3.01;100.00
53619;BME280;39505;53.040;18.488;2023-03-04T00:31:34;100881.13;;;3.00;100.00
53619;BME280;39505;53.040;18.488;2023-03-04T00:31:47;100876.75;;;2.99;100.00
53619;BME280;39505;53.040;18.488;2023-03-04T00:32:00;100876.75;;;2.99;100.00
53619;BME280;39505;53.040;18.488;2023-03-04T00:32:13;100876.75;;;2.99;100.00
53619;BME280;39505;53.040;18.488;2023-03-04T00:32:28;100880.34;;;2.98;100.00
53619;BME280;39505;53.040;18.488;2023-03-04T00:32:40;100877.59;;;3.00;100.00
53619;BME280;39505;53.040;18.488;2023-03-04T00:32:53;100874.94;;;3.00;100.00
53619;BME280;39505;53.040;18.488;2023-03-04T00:33:07;100874.94;;;3.00;100.00
53619;BME280;39505;53.040;18.488;2023-03-04T00:33:19;100874.09;;;2.99;100.00
53619;BME280;39505;53.040;18.488;2023-03-04T00:33:32;100868.03;;;2.97;100.00
53619;BME280;39505;53.040;18.488;2023-03-04T00:33:45;100864.47;;;2.98;100.00
53619;BME280;39505;53.040;18.488;2023-03-04T00:33:57;100873.25;;;2.99;100.00
53619;BME280;39505;53.040;18.488;2023-03-04T00:34:10;100864.47;;;2.98;100.00
53619;BME280;39505;53.040;18.488;2023-03-04T00:34:23;100863.56;;;2.98;100.00
53619;BME280;39505;53.040;18.488;2023-03-04T00:34:35;100866.16;;;2.99;100.00
53619;BME280;39505;53.040;18.488;2023-03-04T00:34:49;100866.16;;;2.99;100.00
53619;BME280;39505;53.040;18.488;2023-03-04T00:35:02;100867.88;;;3.00;100.00
53619;BME280;39505;53.040;18.488;2023-03-04T00:35:15;100870.59;;;2.99;100.00
53619;BME280;39505;53.040;18.488;2023-03-04T00:35:28;100863.56;;;2.98;100.00
53619;BME280;39505;53.040;18.488;2023-03-04T00:35:40;100860.84;;;2.99;100.00
53619;BME280;39505;53.040;18.488;2023-03-04T00:35:53;100862.59;;;3.00;100.00
53619;BME280;39505;53.040;18.488;2023-03-04T00:36:07;100858.97;;;3.01;100.00
53619;BME280;39505;53.040;18.488;2023-03-04T00:36:20;100863.31;;;3.02;100.00
53619;BME280;39505;53.040;18.488;2023-03-04T00:36:33;100853.69;;;3.01;100.00
53619;BME280;39505;53.040;18.488;2023-03-04T00:36:46;100862.41;;;3.03;100.00
53619;BME280;39505;53.040;18.488;2023-03-04T00:36:58;100862.41;;;3.03;100.00
53619;BME280;39505;53.040;18.488;2023-03-04T00:37:13;100854.53;;;3.02;100.00
53619;BME280;39505;53.040;18.488;2023-03-04T00:37:25;100858.03;;;3.02;100.00
53619;BME280;39505;53.040;18.488;2023-03-04T00:37:39;100863.31;;;3.02;100.00
53619;BME280;39505;53.040;18.488;2023-03-04T00:37:52;100855.38;;;3.02;100.00
53619;BME280;39505;53.040;18.488;2023-03-04T00:38:04;100858.97;;;3.01;100.00
53619;BME280;39505;53.040;18.488;2023-03-04T00:38:17;100854.63;;;3.00;100.00
53619;BME280;39505;53.040;18.488;2023-03-04T00:38:30;100855.56;;;2.99;100.00
53619;BME280;39505;53.040;18.488;2023-03-04T00:38:42;100855.25;;;3.05;100.00
53619;BME280;39505;53.040;18.488;2023-03-04T00:38:56;100870.03;;;3.10;100.00
53619;BME280;39505;53.040;18.488;2023-03-04T00:39:09;100856.78;;;3.10;100.00
53619;BME280;39505;53.040;18.488;2023-03-04T00:39:22;100857.81;;;3.07;100.00
53619;BME280;39505;53.040;18.488;2023-03-04T00:39:36;100864.03;;;3.06;100.00
53619;BME280;39505;53.040;18.488;2023-03-04T00:39:49;100856.78;;;3.10;100.00
53619;BME280;39505;53.040;18.488;2023-03-04T00:40:01;100859.44;;;3.10;100.00
53619;BME280;39505;53.040;18.488;2023-03-04T00:40:14;100867.38;;;3.10;100.00
53619;BME280;39505;53.040;18.488;2023-03-04T00:40:28;100862.75;;;3.13;100.00
53619;BME280;39505;53.040;18.488;2023-03-04T00:40:40;100854.75;;;3.15;100.00
53619;BME280;39505;53.040;18.488;2023-03-04T00:40:53;100860.03;;;3.15;100.00
53619;BME280;39505;53.040;18.488;2023-03-04T00:41:06;100852.00;;;3.16;100.00
53619;BME280;39505;53.040;18.488;2023-03-04T00:41:18;100851.16;;;3.16;100.00
53619;BME280;39505;53.040;18.488;2023-03-04T00:41:31;100855.69;;;3.14;100.00
53619;BME280;39505;53.040;18.488;2023-03-04T00:41:44;100845.88;;;3.16;100.00
53619;BME280;39505;53.040;18.488;2023-03-04T00:41:56;100846.78;;;3.15;100.00
53619;BME280;39505;53.040;18.488;2023-03-04T00:42:10;100850.28;;;3.15;100.00
53619;BME280;39505;53.040;18.488;2023-03-04T00:42:23;100858.34;;;3.14;100.00
53619;BME280;39505;53.040;18.488;2023-03-04T00:42:35;100850.47;;;3.12;100.00
53619;BME280;39505;53.040;18.488;2023-03-04T00:42:48;100859.34;;;3.11;100.00
53619;BME280;39505;53.040;18.488;2023-03-04T00:43:01;100852.34;;;3.10;100.00
53619;BME280;39505;53.040;18.488;2023-03-04T00:43:14;100856.78;;;3.10;100.00
53619;BME280;39505;53.040;18.488;2023-03-04T00:43:28;100853.38;;;3.08;100.00
53619;BME280;39505;53.040;18.488;2023-03-04T00:43:41;100849.88;;;3.07;100.00
53619;BME280;39505;53.040;18.488;2023-03-04T00:43:53;100853.38;;;3.08;100.00
53619;BME280;39505;53.040;18.488;2023-03-04T00:44:06;100853.44;;;3.06;100.00
53619;BME280;39505;53.040;18.488;2023-03-04T00:44:19;100849.75;;;3.09;100.00
53619;BME280;39505;53.040;18.488;2023-03-04T00:44:32;100851.56;;;3.08;100.00
53619;BME280;39505;53.040;18.488;2023-03-04T00:44:45;100850.72;;;3.08;100.00
53619;BME280;39505;53.040;18.488;2023-03-04T00:44:58;100858.66;;;3.08;100.00
53619;BME280;39505;53.040;18.488;2023-03-04T00:45:10;100850.72;;;3.08;100.00
53619;BME280;39505;53.040;18.488;2023-03-04T00:45:23;100851.63;;;3.06;100.00
53619;BME280;39505;53.040;18.488;2023-03-04T00:45:36;100843.78;;;3.05;100.00
53619;BME280;39505;53.040;18.488;2023-03-04T00:45:48;100847.28;;;3.05;100.00
53619;BME280;39505;53.040;18.488;2023-03-04T00:46:01;100837.63;;;3.04;100.00
53619;BME280;39505;53.040;18.488;2023-03-04T00:46:14;100843.88;;;3.03;100.00
53619;BME280;39505;53.040;18.488;2023-03-04T00:46:28;100842.91;;;3.04;100.00
53619;BME280;39505;53.040;18.488;2023-03-04T00:46:41;100836.78;;;3.04;100.00
53619;BME280;39505;53.040;18.488;2023-03-04T00:46:53;100838.50;;;3.05;100.00
53619;BME280;39505;53.040;18.488;2023-03-04T00:47:06;100823.53;;;3.04;100.00
53619;BME280;39505;53.040;18.488;2023-03-04T00:47:18;100827.97;;;3.03;100.00
53619;BME280;39505;53.040;18.488;2023-03-04T00:47:31;100828.91;;;3.02;100.00
53619;BME280;39505;53.040;18.488;2023-03-04T00:47:44;100828.06;;;3.02;100.00
53619;BME280;39505;53.040;18.488;2023-03-04T00:47:56;100821.91;;;3.01;100.00
53619;BME280;39505;53.040;18.488;2023-03-04T00:48:10;100821.91;;;3.01;100.00
53619;BME280;39505;53.040;18.488;2023-03-04T00:48:23;100823.59;;;3.02;100.00
53619;BME280;39505;53.040;18.488;2023-03-04T00:48:36;100814.91;;;3.00;100.00
53619;BME280;39505;53.040;18.488;2023-03-04T00:48:49;100827.03;;;3.04;100.00
53619;BME280;39505;53.040;18.488;2023-03-04T00:49:02;100820.03;;;3.03;100.00
53619;BME280;39505;53.040;18.488;2023-03-04T00:49:15;100820.03;;;3.03;100.00
53619;BME280;39505;53.040;18.488;2023-03-04T00:49:28;100825.31;;;3.03;100.00
53619;BME280;39505;53.040;18.488;2023-03-04T00:49:40;100820.03;;;3.03;100.00
53619;BME280;39505;53.040;18.488;2023-03-04T00:49:54;100825.31;;;3.03;100.00
53619;BME280;39505;53.040;18.488;2023-03-04T00:50:08;100822.84;;;3.00;100.00
53619;BME280;39505;53.040;18.488;2023-03-04T00:50:21;100813.88;;;3.03;100.00
53619;BME280;39505;53.040;18.488;2023-03-04T00:50:34;100817.44;;;3.02;100.00
53619;BME280;39505;53.040;18.488;2023-03-04T00:50:47;100821.91;;;3.01;100.00
53619;BME280;39505;53.040;18.488;2023-03-04T00:51:00;100826.25;;;3.02;100.00
53619;BME280;39505;53.040;18.488;2023-03-04T00:51:12;100817.44;;;3.02;100.00
53619;BME280;39505;53.040;18.488;2023-03-04T00:51:26;100819.25;;;3.01;100.00
53619;BME280;39505;53.040;18.488;2023-03-04T00:51:39;100827.97;;;3.03;100.00
53619;BME280;39505;53.040;18.488;2023-03-04T00:51:51;100823.69;;;3.01;100.00
53619;BME280;39505;53.040;18.488;2023-03-04T00:52:04;100824.56;;;3.01;100.00
53619;BME280;39505;53.040;18.488;2023-03-04T00:52:17;100820.22;;;3.00;100.00
53619;BME280;39505;53.040;18.488;2023-03-04T00:52:29;100827.28;;;3.00;100.00
53619;BME280;39505;53.040;18.488;2023-03-04T00:52:42;100820.09;;;3.02;100.00
53619;BME280;39505;53.040;18.488;2023-03-04T00:52:55;100822.75;;;3.02;100.00
53619;BME280;39505;53.040;18.488;2023-03-04T00:53:09;100827.19;;;3.01;100.00
53619;BME280;39505;53.040;18.488;2023-03-04T00:53:22;100822.84;;;3.00;100.00
53619;BME280;39505;53.040;18.488;2023-03-04T00:53:35;100825.50;;;3.00;100.00
53619;BME280;39505;53.040;18.488;2023-03-04T00:53:48;100823.78;;;2.99;100.00
53619;BME280;39505;53.040;18.488;2023-03-04T00:54:01;100824.56;;;3.01;100.00
53619;BME280;39505;53.040;18.488;2023-03-04T00:54:15;100827.19;;;3.01;100.00
53619;BME280;39505;53.040;18.488;2023-03-04T00:54:27;100830.81;;;3.00;100.00
53619;BME280;39505;53.040;18.488;2023-03-04T00:54:41;100830.81;;;3.00;100.00
53619;BME280;39505;53.040;18.488;2023-03-04T00:54:54;100832.50;;;3.01;100.00
53619;BME280;39505;53.040;18.488;2023-03-04T00:55:08;100836.09;;;3.00;100.00
53619;BME280;39505;53.040;18.488;2023-03-04T00:55:20;100836.09;;;3.00;100.00
53619;BME280;39505;53.040;18.488;2023-03-04T00:55:33;100838.75;;;3.00;100.00
53619;BME280;39505;53.040;18.488;2023-03-04T00:55:46;100836.09;;;3.00;100.00
53619;BME280;39505;53.040;18.488;2023-03-04T00:55:59;100843.09;;;3.01;100.00
53619;BME280;39505;53.040;18.488;2023-03-04T00:56:12;100838.66;;;3.02;100.00
53619;BME280;39505;53.040;18.488;2023-03-04T00:56:24;100842.91;;;3.04;100.00
53619;BME280;39505;53.040;18.488;2023-03-04T00:56:37;100833.03;;;3.08;100.00
53619;BME280;39505;53.040;18.488;2023-03-04T00:56:50;100843.69;;;3.06;100.00
53619;BME280;39505;53.040;18.488;2023-03-04T00:57:02;100836.63;;;3.07;100.00
53619;BME280;39505;53.040;18.488;2023-03-04T00:57:15;100830.44;;;3.06;100.00
53619;BME280;39505;53.040;18.488;2023-03-04T00:57:28;100838.25;;;3.10;100.00
53619;BME280;39505;53.040;18.488;2023-03-04T00:57:42;100835.59;;;3.10;100.00
53619;BME280;39505;53.040;18.488;2023-03-04T00:57:54;100847.13;;;3.09;100.00
53619;BME280;39505;53.040;18.488;2023-03-04T00:58:07;100842.78;;;3.08;100.00
53619;BME280;39505;53.040;18.488;2023-03-04T00:58:19;100837.47;;;3.08;100.00
53619;BME280;39505;53.040;18.488;2023-03-04T00:58:32;100841.91;;;3.07;100.00
53619;BME280;39505;53.040;18.488;2023-03-04T00:58:45;100837.47;;;3.08;100.00
53619;BME280;39505;53.040;18.488;2023-03-04T00:58:58;100837.47;;;3.08;100.00
53619;BME280;39505;53.040;18.488;2023-03-04T00:59:11;100831.22;;;3.09;100.00
53619;BME280;39505;53.040;18.488;2023-03-04T00:59:23;100832.16;;;3.08;100.00
53619;BME280;39505;53.040;18.488;2023-03-04T00:59:36;100840.91;;;3.10;100.00
53619;BME280;39505;53.040;18.488;2023-03-04T00:59:49;100835.28;;;3.16;100.00
53619;BME280;39505;53.040;18.488;2023-03-04T01:00:03;100840.56;;;3.16;100.00
53619;BME280;39505;53.040;18.488;2023-03-04T01:00:17;100836.97;;;3.17;100.00
53619;BME280;39505;53.040;18.488;2023-03-04T01:00:29;100842.25;;;3.17;100.00
53619;BME280;39505;53.040;18.488;2023-03-04T01:00:43;100842.25;;;3.17;100.00
53619;BME280;39505;53.040;18.488;2023-03-04T01:00:56;100847.56;;;3.17;100.00
53619;BME280;39505;53.040;18.488;2023-03-04T01:01:08;100837.91;;;3.16;100.00
53619;BME280;39505;53.040;18.488;2023-03-04T01:01:21;100838.69;;;3.18;100.00
53619;BME280;39505;53.040;18.488;2023-03-04T01:01:34;100839.63;;;3.17;100.00
53619;BME280;39505;53.040;18.488;2023-03-04T01:01:47;100841.34;;;3.18;100.00
53619;BME280;39505;53.040;18.488;2023-03-04T01:02:01;100840.47;;;3.17;100.00
53619;BME280;39505;53.040;18.488;2023-03-04T01:02:13;100836.97;;;3.17;100.00
53619;BME280;39505;53.040;18.488;2023-03-04T01:02:26;100839.63;;;3.17;100.00
53619;BME280;39505;53.040;18.488;2023-03-04T01:02:39;100844.91;;;3.17;100.00
53619;BME280;39505;53.040;18.488;2023-03-04T01:02:51;100843.22;;;3.16;100.00
53619;BME280;39505;53.040;18.488;2023-03-04T01:03:04;100831.84;;;3.14;100.00
53619;BME280;39505;53.040;18.488;2023-03-04T01:03:18;100837.16;;;3.14;100.00
53619;BME280;39505;53.040;18.488;2023-03-04T01:03:30;100838.06;;;3.13;100.00
53619;BME280;39505;53.040;18.488;2023-03-04T01:03:44;100839.03;;;3.12;100.00
53619;BME280;39505;53.040;18.488;2023-03-04T01:03:57;100852.34;;;3.10;100.00
53619;BME280;39505;53.040;18.488;2023-03-04T01:04:09;100840.91;;;3.10;100.00
53619;BME280;39505;53.040;18.488;2023-03-04T01:04:22;100839.16;;;3.09;100.00
53619;BME280;39505;53.040;18.488;2023-03-04T01:04:35;100846.19;;;3.10;100.00
53619;BME280;39505;53.040;18.488;2023-03-04T01:04:48;100838.25;;;3.10;100.00
53619;BME280;39505;53.040;18.488;2023-03-04T01:05:02;100847.03;;;3.10;100.00
53619;BME280;39505;53.040;18.488;2023-03-04T01:05:15;100840.78;;;3.11;100.00
53619;BME280;39505;53.040;18.488;2023-03-04T01:05:28;100843.44;;;3.11;100.00
53619;BME280;39505;53.040;18.488;2023-03-04T01:05:41;100833.72;;;3.12;100.00
53619;BME280;39505;53.040;18.488;2023-03-04T01:05:53;100842.59;;;3.11;100.00
53619;BME280;39505;53.040;18.488;2023-03-04T01:06:06;100836.44;;;3.10;100.00
53619;BME280;39505;53.040;18.488;2023-03-04T01:06:19;100843.44;;;3.11;100.00
53619;BME280;39505;53.040;18.488;2023-03-04T01:06:32;100841.66;;;3.12;100.00
53619;BME280;39505;53.040;18.488;2023-03-04T01:06:45;100842.59;;;3.11;100.00
53619;BME280;39505;53.040;18.488;2023-03-04T01:06:58;100837.28;;;3.11;100.00
53619;BME280;39505;53.040;18.488;2023-03-04T01:07:11;100855.00;;;3.10;100.00